sensor_id;sensor_type;location;lat;lon;timestamp;temperature;humidity
42755;DHT22;28407;51.830;5.684;2023-11-19T00:01:42;12.60;93.60
42755;DHT22;28407;51.830;5.684;2023-11-19T00:03:42;12.60;93.60
42755;DHT22;28407;51.830;5.684;2023-11-19T00:05:45;12.70;93.60
42755;DHT22;28407;51.830;5.684;2023-11-19T00:07:45;12.70;93.60
42755;DHT22;28407;51.830;5.684;2023-11-19T00:09:46;12.70;93.60
42755;DHT22;28407;51.830;5.684;2023-11-19T00:11:47;12.70;93.60
42755;DHT22;28407;51.830;5.684;2023-11-19T00:13:56;12.70;93.60
42755;DHT22;28407;51.830;5.684;2023-11-19T00:15:57;12.70;93.70
42755;DHT22;28407;51.830;5.684;2023-11-19T00:17:58;12.70;93.60
42755;DHT22;28407;51.830;5.684;2023-11-19T00:19:59;12.70;93.70
42755;DHT22;28407;51.830;5.684;2023-11-19T00:22:00;12.70;93.70
42755;DHT22;28407;51.830;5.684;2023-11-19T00:24:03;12.70;93.60
42755;DHT22;28407;51.830;5.684;2023-11-19T00:26:04;12.70;93.60
42755;DHT22;28407;51.830;5.684;2023-11-19T00:28:06;12.70;93.70
42755;DHT22;28407;51.830;5.684;2023-11-19T00:30:07;12.70;93.70
42755;DHT22;28407;51.830;5.684;2023-11-19T00:32:11;12.70;93.70
42755;DHT22;28407;51.830;5.684;2023-11-19T00:34:12;12.80;93.70
42755;DHT22;28407;51.830;5.684;2023-11-19T00:36:12;12.80;93.70
42755;DHT22;28407;51.830;5.684;2023-11-19T00:38:13;12.70;93.70
42755;DHT22;28407;51.830;5.684;2023-11-19T00:40:14;12.80;93.70
42755;DHT22;28407;51.830;5.684;2023-11-19T00:42:16;12.80;93.70
42755;DHT22;28407;51.830;5.684;2023-11-19T00:44:17;12.80;93.70
42755;DHT22;28407;51.830;5.684;2023-11-19T00:46:17;12.80;93.70
42755;DHT22;28407;51.830;5.684;2023-11-19T00:48:18;12.80;93.70
42755;DHT22;28407;51.830;5.684;2023-11-19T00:50:19;12.80;93.70
42755;DHT22;28407;51.830;5.684;2023-11-19T00:52:20;12.80;93.70
42755;DHT22;28407;51.830;5.684;2023-11-19T00:54:22;12.80;93.70
42755;DHT22;28407;51.830;5.684;2023-11-19T00:56:26;12.80;93.70
42755;DHT22;28407;51.830;5.684;2023-11-19T00:58:26;12.80;93.70
42755;DHT22;28407;51.830;5.684;2023-11-19T01:00:27;12.80;93.70
42755;DHT22;28407;51.830;5.684;2023-11-19T01:02:28;12.80;93.70
42755;DHT22;28407;51.830;5.684;2023-11-19T01:04:37;12.80;93.70
42755;DHT22;28407;51.830;5.684;2023-11-19T01:06:38;12.80;93.70
42755;DHT22;28407;51.830;5.684;2023-11-19T01:08:39;12.90;93.80
42755;DHT22;28407;51.830;5.684;2023-11-19T01:10:39;12.80;93.80
42755;DHT22;28407;51.830;5.684;2023-11-19T01:12:40;12.90;93.80
42755;DHT22;28407;51.830;5.684;2023-11-19T01:14:40;12.90;93.80
42755;DHT22;28407;51.830;5.684;2023-11-19T01:16:41;12.80;93.70
42755;DHT22;28407;51.830;5.684;2023-11-19T01:18:43;12.90;93.80
42755;DHT22;28407;51.830;5.684;2023-11-19T01:20:44;12.80;93.80
42755;DHT22;28407;51.830;5.684;2023-11-19T01:22:45;12.90;93.80
42755;DHT22;28407;51.830;5.684;2023-11-19T01:24:45;12.90;93.80
42755;DHT22;28407;51.830;5.684;2023-11-19T01:26:46;12.90;93.80
42755;DHT22;28407;51.830;5.684;2023-11-19T01:28:47;12.90;93.80
42755;DHT22;28407;51.830;5.684;2023-11-19T01:30:51;12.90;93.80
42755;DHT22;28407;51.830;5.684;2023-11-19T01:32:51;12.90;93.80
42755;DHT22;28407;51.830;5.684;2023-11-19T01:34:52;12.90;93.80
42755;DHT22;28407;51.830;5.684;2023-11-19T01:36:53;12.90;93.80
42755;DHT22;28407;51.830;5.684;2023-11-19T01:38:53;12.90;93.80
42755;DHT22;28407;51.830;5.684;2023-11-19T01:40:57;12.90;93.80
42755;DHT22;28407;51.830;5.684;2023-11-19T01:42:58;12.90;93.80
42755;DHT22;28407;51.830;5.684;2023-11-19T01:45:00;12.90;93.80
42755;DHT22;28407;51.830;5.684;2023-11-19T01:47:01;12.90;93.80
42755;DHT22;28407;51.830;5.684;2023-11-19T01:49:03;12.90;93.80
42755;DHT22;28407;51.830;5.684;2023-11-19T01:51:05;12.90;93.80
42755;DHT22;28407;51.830;5.684;2023-11-19T01:53:08;12.90;93.80
42755;DHT22;28407;51.830;5.684;2023-11-19T01:55:09;12.90;93.80
42755;DHT22;28407;51.830;5.684;2023-11-19T01:57:11;12.90;93.80
42755;DHT22;28407;51.830;5.684;2023-11-19T01:59:13;12.90;93.80
42755;DHT22;28407;51.830;5.684;2023-11-19T02:01:14;12.90;93.80
42755;DHT22;28407;51.830;5.684;2023-11-19T02:03:16;12.90;93.80
42755;DHT22;28407;51.830;5.684;2023-11-19T02:05:17;12.90;93.80
42755;DHT22;28407;51.830;5.684;2023-11-19T02:07:18;12.90;93.80
42755;DHT22;28407;51.830;5.684;2023-11-19T02:09:19;12.90;93.80
42755;DHT22;28407;51.830;5.684;2023-11-19T02:11:20;12.90;93.80
42755;DHT22;28407;51.830;5.684;2023-11-19T02:13:21;12.90;93.80
42755;DHT22;28407;51.830;5.684;2023-11-19T02:15:21;12.90;93.80
42755;DHT22;28407;51.830;5.684;2023-11-19T02:17:28;12.90;93.80
42755;DHT22;28407;51.830;5.684;2023-11-19T02:19:29;12.90;93.80
42755;DHT22;28407;51.830;5.684;2023-11-19T02:21:29;12.90;93.80
42755;DHT22;28407;51.830;5.684;2023-11-19T02:23:30;12.90;93.80
42755;DHT22;28407;51.830;5.684;2023-11-19T02:25:32;12.90;93.80
42755;DHT22;28407;51.830;5.684;2023-11-19T02:29:46;12.90;93.90
42755;DHT22;28407;51.830;5.684;2023-11-19T02:31:48;12.80;93.80
42755;DHT22;28407;51.830;5.684;2023-11-19T02:33:48;12.80;93.80
42755;DHT22;28407;51.830;5.684;2023-11-19T02:35:50;12.80;93.90
42755;DHT22;28407;51.830;5.684;2023-11-19T02:37:51;12.80;93.90
42755;DHT22;28407;51.830;5.684;2023-11-19T02:39:52;12.80;93.90
42755;DHT22;28407;51.830;5.684;2023-11-19T02:41:53;12.80;93.90
42755;DHT22;28407;51.830;5.684;2023-11-19T02:43:53;12.70;93.90
42755;DHT22;28407;51.830;5.684;2023-11-19T02:45:54;12.80;94.00
42755;DHT22;28407;51.830;5.684;2023-11-19T02:47:56;12.70;93.90
42755;DHT22;28407;51.830;5.684;2023-11-19T02:49:56;12.70;93.90
42755;DHT22;28407;51.830;5.684;2023-11-19T02:51:58;12.70;94.00
42755;DHT22;28407;51.830;5.684;2023-11-19T02:53:59;12.70;94.00
42755;DHT22;28407;51.830;5.684;2023-11-19T02:56:00;12.70;93.90
42755;DHT22;28407;51.830;5.684;2023-11-19T02:58:12;12.70;94.00
42755;DHT22;28407;51.830;5.684;2023-11-19T03:00:22;12.70;94.00
42755;DHT22;28407;51.830;5.684;2023-11-19T03:02:33;12.70;94.00
42755;DHT22;28407;51.830;5.684;2023-11-19T03:04:44;12.70;94.00
42755;DHT22;28407;51.830;5.684;2023-11-19T03:06:46;12.70;93.90
42755;DHT22;28407;51.830;5.684;2023-11-19T03:08:47;12.60;93.90
42755;DHT22;28407;51.830;5.684;2023-11-19T03:10:48;12.70;93.90
42755;DHT22;28407;51.830;5.684;2023-11-19T03:12:50;12.70;93.90
42755;DHT22;28407;51.830;5.684;2023-11-19T03:14:50;12.60;93.90
42755;DHT22;28407;51.830;5.684;2023-11-19T03:16:51;12.70;93.90
42755;DHT22;28407;51.830;5.684;2023-11-19T03:18:52;12.60;93.90
42755;DHT22;28407;51.830;5.684;2023-11-19T03:20:53;12.60;93.90
42755;DHT22;28407;51.830;5.684;2023-11-19T03:22:53;12.60;93.90
42755;DHT22;28407;51.830;5.684;2023-11-19T03:24:54;12.60;93.90
42755;DHT22;28407;51.830;5.684;2023-11-19T03:26:55;12.60;93.90
42755;DHT22;28407;51.830;5.684;2023-11-19T03:28:56;12.60;93.90
42755;DHT22;28407;51.830;5.684;2023-11-19T03:30:57;12.50;93.90
42755;DHT22;28407;51.830;5.684;2023-11-19T03:32:58;12.50;93.90
42755;DHT22;28407;51.830;5.684;2023-11-19T03:35:00;12.50;93.90
42755;DHT22;28407;51.830;5.684;2023-11-19T03:37:00;12.50;93.90
42755;DHT22;28407;51.830;5.684;2023-11-19T03:39:02;12.40;93.90
42755;DHT22;28407;51.830;5.684;2023-11-19T03:41:13;12.40;93.90
42755;DHT22;28407;51.830;5.684;2023-11-19T03:43:14;12.40;93.90
42755;DHT22;28407;51.830;5.684;2023-11-19T03:45:14;12.40;93.90
42755;DHT22;28407;51.830;5.684;2023-11-19T03:47:17;12.30;93.90
42755;DHT22;28407;51.830;5.684;2023-11-19T03:49:17;12.30;93.90
42755;DHT22;28407;51.830;5.684;2023-11-19T03:51:19;12.30;93.90
42755;DHT22;28407;51.830;5.684;2023-11-19T03:53:19;12.30;93.90
42755;DHT22;28407;51.830;5.684;2023-11-19T03:55:20;12.30;94.00
42755;DHT22;28407;51.830;5.684;2023-11-19T03:57:21;12.30;94.00
42755;DHT22;28407;51.830;5.684;2023-11-19T03:59:22;12.20;93.90
42755;DHT22;28407;51.830;5.684;2023-11-19T04:01:22;12.20;93.90
42755;DHT22;28407;51.830;5.684;2023-11-19T04:03:23;12.20;93.90
42755;DHT22;28407;51.830;5.684;2023-11-19T04:05:24;12.20;93.90
42755;DHT22;28407;51.830;5.684;2023-11-19T04:07:24;12.20;93.90
42755;DHT22;28407;51.830;5.684;2023-11-19T04:09:25;12.20;93.90
42755;DHT22;28407;51.830;5.684;2023-11-19T04:11:25;12.20;93.90
42755;DHT22;28407;51.830;5.684;2023-11-19T04:13:26;12.20;93.90
42755;DHT22;28407;51.830;5.684;2023-11-19T04:15:27;12.10;93.80
42755;DHT22;28407;51.830;5.684;2023-11-19T04:17:28;12.10;93.90
42755;DHT22;28407;51.830;5.684;2023-11-19T04:19:29;12.10;93.80
42755;DHT22;28407;51.830;5.684;2023-11-19T04:21:31;12.10;93.90
42755;DHT22;28407;51.830;5.684;2023-11-19T04:23:32;12.10;93.80
42755;DHT22;28407;51.830;5.684;2023-11-19T04:25:33;12.10;93.80
42755;DHT22;28407;51.830;5.684;2023-11-19T04:27:33;12.00;93.80
42755;DHT22;28407;51.830;5.684;2023-11-19T04:29:35;12.00;93.80
42755;DHT22;28407;51.830;5.684;2023-11-19T04:31:35;12.00;93.80
42755;DHT22;28407;51.830;5.684;2023-11-19T04:33:36;12.00;93.80
42755;DHT22;28407;51.830;5.684;2023-11-19T04:35:36;12.00;93.80
42755;DHT22;28407;51.830;5.684;2023-11-19T04:37:37;12.00;93.80
42755;DHT22;28407;51.830;5.684;2023-11-19T04:39:38;12.00;93.80
42755;DHT22;28407;51.830;5.684;2023-11-19T04:41:48;12.00;93.80
42755;DHT22;28407;51.830;5.684;2023-11-19T04:43:49;11.90;93.80
42755;DHT22;28407;51.830;5.684;2023-11-19T04:45:50;11.90;93.80
42755;DHT22;28407;51.830;5.684;2023-11-19T04:47:50;11.90;93.80
42755;DHT22;28407;51.830;5.684;2023-11-19T04:49:51;11.90;93.80
42755;DHT22;28407;51.830;5.684;2023-11-19T04:51:52;11.80;93.80
42755;DHT22;28407;51.830;5.684;2023-11-19T04:53:52;11.80;93.80
42755;DHT22;28407;51.830;5.684;2023-11-19T04:55:53;11.80;93.80
42755;DHT22;28407;51.830;5.684;2023-11-19T04:57:54;11.80;93.80
42755;DHT22;28407;51.830;5.684;2023-11-19T04:59:55;11.80;93.80
42755;DHT22;28407;51.830;5.684;2023-11-19T05:01:55;11.80;93.80
42755;DHT22;28407;51.830;5.684;2023-11-19T05:03:56;11.80;93.80
42755;DHT22;28407;51.830;5.684;2023-11-19T05:06:00;11.80;93.80
42755;DHT22;28407;51.830;5.684;2023-11-19T05:08:00;11.80;93.80
42755;DHT22;28407;51.830;5.684;2023-11-19T05:10:01;11.80;93.80
42755;DHT22;28407;51.830;5.684;2023-11-19T05:12:04;11.80;93.70
42755;DHT22;28407;51.830;5.684;2023-11-19T05:14:05;11.80;93.70
42755;DHT22;28407;51.830;5.684;2023-11-19T05:16:06;11.80;93.70
42755;DHT22;28407;51.830;5.684;2023-11-19T05:18:07;11.80;93.70
42755;DHT22;28407;51.830;5.684;2023-11-19T05:20:08;11.80;93.70
42755;DHT22;28407;51.830;5.684;2023-11-19T05:22:13;11.70;93.60
42755;DHT22;28407;51.830;5.684;2023-11-19T05:24:14;11.70;93.60
42755;DHT22;28407;51.830;5.684;2023-11-19T05:26:22;11.80;93.70
42755;DHT22;28407;51.830;5.684;2023-11-19T05:28:23;11.80;93.60
42755;DHT22;28407;51.830;5.684;2023-11-19T05:30:24;11.80;93.60
42755;DHT22;28407;51.830;5.684;2023-11-19T05:32:25;11.70;93.60
42755;DHT22;28407;51.830;5.684;2023-11-19T05:34:27;11.70;93.60
42755;DHT22;28407;51.830;5.684;2023-11-19T05:36:28;11.70;93.60
42755;DHT22;28407;51.830;5.684;2023-11-19T05:38:29;11.70;93.60
42755;DHT22;28407;51.830;5.684;2023-11-19T05:40:30;11.70;93.50
42755;DHT22;28407;51.830;5.684;2023-11-19T05:42:31;11.70;93.50
42755;DHT22;28407;51.830;5.684;2023-11-19T05:44:31;11.70;93.50
42755;DHT22;28407;51.830;5.684;2023-11-19T05:46:32;11.70;93.50
42755;DHT22;28407;51.830;5.684;2023-11-19T05:48:33;11.70;93.50
42755;DHT22;28407;51.830;5.684;2023-11-19T05:50:34;11.70;93.50
42755;DHT22;28407;51.830;5.684;2023-11-19T05:52:34;11.70;93.50
42755;DHT22;28407;51.830;5.684;2023-11-19T05:54:35;11.70;93.50
42755;DHT22;28407;51.830;5.684;2023-11-19T05:56:38;11.70;93.40
42755;DHT22;28407;51.830;5.684;2023-11-19T05:58:39;11.70;93.40
42755;DHT22;28407;51.830;5.684;2023-11-19T06:00:41;11.70;93.40
42755;DHT22;28407;51.830;5.684;2023-11-19T06:02:41;11.70;93.40
42755;DHT22;28407;51.830;5.684;2023-11-19T06:04:43;11.60;93.40
42755;DHT22;28407;51.830;5.684;2023-11-19T06:06:45;11.70;93.40
42755;DHT22;28407;51.830;5.684;2023-11-19T06:08:45;11.60;93.40
42755;DHT22;28407;51.830;5.684;2023-11-19T06:10:47;11.60;93.40
42755;DHT22;28407;51.830;5.684;2023-11-19T06:12:47;11.60;93.40
42755;DHT22;28407;51.830;5.684;2023-11-19T06:14:48;11.60;93.40
42755;DHT22;28407;51.830;5.684;2023-11-19T06:16:48;11.60;93.40
42755;DHT22;28407;51.830;5.684;2023-11-19T06:18:49;11.60;93.40
42755;DHT22;28407;51.830;5.684;2023-11-19T06:20:50;11.60;93.40
42755;DHT22;28407;51.830;5.684;2023-11-19T06:22:50;11.60;93.40
42755;DHT22;28407;51.830;5.684;2023-11-19T06:24:51;11.60;93.40
42755;DHT22;28407;51.830;5.684;2023-11-19T06:26:52;11.60;93.40
42755;DHT22;28407;51.830;5.684;2023-11-19T06:28:53;11.60;93.40
42755;DHT22;28407;51.830;5.684;2023-11-19T06:30:54;11.60;93.40
42755;DHT22;28407;51.830;5.684;2023-11-19T06:32:54;11.60;93.40
42755;DHT22;28407;51.830;5.684;2023-11-19T06:34:55;11.60;93.40
42755;DHT22;28407;51.830;5.684;2023-11-19T06:36:56;11.60;93.40
42755;DHT22;28407;51.830;5.684;2023-11-19T06:38:57;11.60;93.30
42755;DHT22;28407;51.830;5.684;2023-11-19T06:40:58;11.50;93.30
42755;DHT22;28407;51.830;5.684;2023-11-19T06:42:59;11.60;93.30
42755;DHT22;28407;51.830;5.684;2023-11-19T06:45:00;11.60;93.30
42755;DHT22;28407;51.830;5.684;2023-11-19T06:47:00;11.50;93.30
42755;DHT22;28407;51.830;5.684;2023-11-19T06:49:01;11.60;93.30
42755;DHT22;28407;51.830;5.684;2023-11-19T06:51:05;11.50;93.30
42755;DHT22;28407;51.830;5.684;2023-11-19T06:53:05;11.50;93.30
42755;DHT22;28407;51.830;5.684;2023-11-19T06:55:10;11.60;93.30
42755;DHT22;28407;51.830;5.684;2023-11-19T06:57:12;11.50;93.30
42755;DHT22;28407;51.830;5.684;2023-11-19T06:59:12;11.50;93.30
42755;DHT22;28407;51.830;5.684;2023-11-19T07:01:14;11.50;93.30
42755;DHT22;28407;51.830;5.684;2023-11-19T07:03:15;11.50;93.30
42755;DHT22;28407;51.830;5.684;2023-11-19T07:05:16;11.50;93.30
42755;DHT22;28407;51.830;5.684;2023-11-19T07:07:17;11.50;93.20
42755;DHT22;28407;51.830;5.684;2023-11-19T07:09:17;11.50;93.20
42755;DHT22;28407;51.830;5.684;2023-11-19T07:11:19;11.50;93.20
42755;DHT22;28407;51.830;5.684;2023-11-19T07:13:19;11.50;93.20
42755;DHT22;28407;51.830;5.684;2023-11-19T07:15:21;11.50;93.20
42755;DHT22;28407;51.830;5.684;2023-11-19T07:17:22;11.50;93.20
42755;DHT22;28407;51.830;5.684;2023-11-19T07:19:24;11.50;93.20
42755;DHT22;28407;51.830;5.684;2023-11-19T07:21:25;11.50;93.20
42755;DHT22;28407;51.830;5.684;2023-11-19T07:23:26;11.50;93.20
42755;DHT22;28407;51.830;5.684;2023-11-19T07:25:26;11.50;93.30
42755;DHT22;28407;51.830;5.684;2023-11-19T07:27:27;11.50;93.30
42755;DHT22;28407;51.830;5.684;2023-11-19T07:29:27;11.50;93.20
42755;DHT22;28407;51.830;5.684;2023-11-19T07:31:28;11.50;93.20
42755;DHT22;28407;51.830;5.684;2023-11-19T07:33:29;11.50;93.20
42755;DHT22;28407;51.830;5.684;2023-11-19T07:35:30;11.50;93.20
42755;DHT22;28407;51.830;5.684;2023-11-19T07:37:31;11.50;93.20
42755;DHT22;28407;51.830;5.684;2023-11-19T07:39:32;11.50;93.20
42755;DHT22;28407;51.830;5.684;2023-11-19T07:41:33;11.50;93.20
42755;DHT22;28407;51.830;5.684;2023-11-19T07:43:33;11.50;93.20
42755;DHT22;28407;51.830;5.684;2023-11-19T07:45:34;11.50;93.10
42755;DHT22;28407;51.830;5.684;2023-11-19T07:47:35;11.50;93.10
42755;DHT22;28407;51.830;5.684;2023-11-19T07:49:36;11.50;93.10
42755;DHT22;28407;51.830;5.684;2023-11-19T07:51:36;11.50;93.10
42755;DHT22;28407;51.830;5.684;2023-11-19T07:53:37;11.60;93.10
42755;DHT22;28407;51.830;5.684;2023-11-19T07:55:38;11.60;93.10
42755;DHT22;28407;51.830;5.684;2023-11-19T07:57:39;11.60;93.10
42755;DHT22;28407;51.830;5.684;2023-11-19T07:59:40;11.60;93.00
42755;DHT22;28407;51.830;5.684;2023-11-19T08:01:40;11.70;93.00
42755;DHT22;28407;51.830;5.684;2023-11-19T08:03:41;11.70;93.00
42755;DHT22;28407;51.830;5.684;2023-11-19T08:05:42;11.70;93.00
42755;DHT22;28407;51.830;5.684;2023-11-19T08:07:42;11.70;93.00
42755;DHT22;28407;51.830;5.684;2023-11-19T08:09:43;11.70;92.90
42755;DHT22;28407;51.830;5.684;2023-11-19T08:11:44;11.80;92.90
42755;DHT22;28407;51.830;5.684;2023-11-19T08:13:45;11.70;92.90
42755;DHT22;28407;51.830;5.684;2023-11-19T08:15:46;11.70;92.80
42755;DHT22;28407;51.830;5.684;2023-11-19T08:17:49;11.70;92.80
42755;DHT22;28407;51.830;5.684;2023-11-19T08:19:50;11.80;92.80
42755;DHT22;28407;51.830;5.684;2023-11-19T08:21:51;11.70;92.80
42755;DHT22;28407;51.830;5.684;2023-11-19T08:23:52;11.80;92.80
42755;DHT22;28407;51.830;5.684;2023-11-19T08:25:53;11.80;92.80
42755;DHT22;28407;51.830;5.684;2023-11-19T08:27:54;11.80;92.80
42755;DHT22;28407;51.830;5.684;2023-11-19T08:29:55;11.80;92.80
42755;DHT22;28407;51.830;5.684;2023-11-19T08:31:57;11.80;92.80
42755;DHT22;28407;51.830;5.684;2023-11-19T08:33:57;11.80;92.70
42755;DHT22;28407;51.830;5.684;2023-11-19T08:35:58;11.80;92.70
42755;DHT22;28407;51.830;5.684;2023-11-19T08:37:59;11.90;92.70
42755;DHT22;28407;51.830;5.684;2023-11-19T08:40:00;11.90;92.70
42755;DHT22;28407;51.830;5.684;2023-11-19T08:42:01;11.90;92.70
42755;DHT22;28407;51.830;5.684;2023-11-19T08:44:02;11.90;92.70
42755;DHT22;28407;51.830;5.684;2023-11-19T08:46:03;11.90;92.60
42755;DHT22;28407;51.830;5.684;2023-11-19T08:48:04;11.90;92.60
42755;DHT22;28407;51.830;5.684;2023-11-19T08:50:06;11.90;92.60
42755;DHT22;28407;51.830;5.684;2023-11-19T08:52:06;12.00;92.60
42755;DHT22;28407;51.830;5.684;2023-11-19T08:54:10;12.00;92.60
42755;DHT22;28407;51.830;5.684;2023-11-19T08:56:13;12.00;92.50
42755;DHT22;28407;51.830;5.684;2023-11-19T08:58:17;12.00;92.60
42755;DHT22;28407;51.830;5.684;2023-11-19T09:00:18;12.00;92.80
42755;DHT22;28407;51.830;5.684;2023-11-19T09:02:19;12.00;92.50
42755;DHT22;28407;51.830;5.684;2023-11-19T09:04:20;12.00;92.50
42755;DHT22;28407;51.830;5.684;2023-11-19T09:06:23;12.00;92.50
42755;DHT22;28407;51.830;5.684;2023-11-19T09:08:23;12.00;92.50
42755;DHT22;28407;51.830;5.684;2023-11-19T09:10:24;12.10;92.40
42755;DHT22;28407;51.830;5.684;2023-11-19T09:12:25;12.00;92.40
42755;DHT22;28407;51.830;5.684;2023-11-19T09:14:25;12.00;92.40
42755;DHT22;28407;51.830;5.684;2023-11-19T09:16:26;12.10;92.40
42755;DHT22;28407;51.830;5.684;2023-11-19T09:18:27;12.10;92.40
42755;DHT22;28407;51.830;5.684;2023-11-19T09:20:27;12.10;92.40
42755;DHT22;28407;51.830;5.684;2023-11-19T09:22:29;12.10;92.30
42755;DHT22;28407;51.830;5.684;2023-11-19T09:24:30;12.10;92.30
42755;DHT22;28407;51.830;5.684;2023-11-19T09:26:31;12.20;92.30
42755;DHT22;28407;51.830;5.684;2023-11-19T09:28:32;12.20;92.30
42755;DHT22;28407;51.830;5.684;2023-11-19T09:30:32;12.20;92.30
42755;DHT22;28407;51.830;5.684;2023-11-19T09:32:34;12.20;92.30
42755;DHT22;28407;51.830;5.684;2023-11-19T09:34:36;12.20;92.30
42755;DHT22;28407;51.830;5.684;2023-11-19T09:36:37;12.20;92.30
42755;DHT22;28407;51.830;5.684;2023-11-19T09:38:38;12.20;92.20
42755;DHT22;28407;51.830;5.684;2023-11-19T09:40:38;12.20;92.20
42755;DHT22;28407;51.830;5.684;2023-11-19T09:42:43;12.20;92.20
42755;DHT22;28407;51.830;5.684;2023-11-19T09:44:48;12.20;92.20
42755;DHT22;28407;51.830;5.684;2023-11-19T09:46:49;12.20;92.20
42755;DHT22;28407;51.830;5.684;2023-11-19T09:48:52;12.30;92.20
42755;DHT22;28407;51.830;5.684;2023-11-19T09:50:55;12.30;92.20
42755;DHT22;28407;51.830;5.684;2023-11-19T09:52:55;12.30;92.10
42755;DHT22;28407;51.830;5.684;2023-11-19T09:54:56;12.40;92.10
42755;DHT22;28407;51.830;5.684;2023-11-19T09:56:58;12.40;92.00
42755;DHT22;28407;51.830;5.684;2023-11-19T09:59:03;12.50;92.00
42755;DHT22;28407;51.830;5.684;2023-11-19T10:01:04;12.50;92.00
42755;DHT22;28407;51.830;5.684;2023-11-19T10:03:09;12.50;92.00
42755;DHT22;28407;51.830;5.684;2023-11-19T10:05:11;12.50;91.90
42755;DHT22;28407;51.830;5.684;2023-11-19T10:07:13;12.50;91.90
42755;DHT22;28407;51.830;5.684;2023-11-19T10:09:14;12.60;91.90
42755;DHT22;28407;51.830;5.684;2023-11-19T10:11:15;12.60;91.90
42755;DHT22;28407;51.830;5.684;2023-11-19T10:13:17;12.60;91.90
42755;DHT22;28407;51.830;5.684;2023-11-19T10:15:23;12.60;91.90
42755;DHT22;28407;51.830;5.684;2023-11-19T10:17:43;12.70;91.80
42755;DHT22;28407;51.830;5.684;2023-11-19T10:19:43;12.70;91.80
42755;DHT22;28407;51.830;5.684;2023-11-19T10:21:45;12.70;91.80
42755;DHT22;28407;51.830;5.684;2023-11-19T10:23:51;12.70;91.70
42755;DHT22;28407;51.830;5.684;2023-11-19T10:25:53;12.80;91.70
42755;DHT22;28407;51.830;5.684;2023-11-19T10:27:54;12.80;91.70
42755;DHT22;28407;51.830;5.684;2023-11-19T10:29:59;12.80;91.60
42755;DHT22;28407;51.830;5.684;2023-11-19T10:32:00;12.80;91.60
42755;DHT22;28407;51.830;5.684;2023-11-19T10:34:01;12.80;91.60
42755;DHT22;28407;51.830;5.684;2023-11-19T10:36:01;12.80;91.60
42755;DHT22;28407;51.830;5.684;2023-11-19T10:38:15;12.80;91.50
42755;DHT22;28407;51.830;5.684;2023-11-19T10:40:16;12.90;91.50
42755;DHT22;28407;51.830;5.684;2023-11-19T10:42:17;12.90;91.50
42755;DHT22;28407;51.830;5.684;2023-11-19T10:44:31;12.90;91.50
42755;DHT22;28407;51.830;5.684;2023-11-19T10:46:41;12.90;91.40
42755;DHT22;28407;51.830;5.684;2023-11-19T10:48:42;12.90;91.40
42755;DHT22;28407;51.830;5.684;2023-11-19T10:50:44;12.90;91.60
42755;DHT22;28407;51.830;5.684;2023-11-19T10:52:46;13.00;91.30
42755;DHT22;28407;51.830;5.684;2023-11-19T10:54:51;13.00;91.30
42755;DHT22;28407;51.830;5.684;2023-11-19T10:56:58;13.00;91.30
42755;DHT22;28407;51.830;5.684;2023-11-19T10:59:00;13.00;91.20
42755;DHT22;28407;51.830;5.684;2023-11-19T11:01:02;13.00;91.20
42755;DHT22;28407;51.830;5.684;2023-11-19T11:03:20;13.10;91.10
42755;DHT22;28407;51.830;5.684;2023-11-19T11:05:22;13.10;91.00
42755;DHT22;28407;51.830;5.684;2023-11-19T11:07:23;13.10;91.00
42755;DHT22;28407;51.830;5.684;2023-11-19T11:09:27;13.10;91.00
42755;DHT22;28407;51.830;5.684;2023-11-19T11:11:28;13.10;91.00
42755;DHT22;28407;51.830;5.684;2023-11-19T11:13:29;13.10;91.00
42755;DHT22;28407;51.830;5.684;2023-11-19T11:15:31;13.10;91.00
42755;DHT22;28407;51.830;5.684;2023-11-19T11:17:32;13.10;91.00
42755;DHT22;28407;51.830;5.684;2023-11-19T11:19:34;13.10;91.00
42755;DHT22;28407;51.830;5.684;2023-11-19T11:21:37;13.10;91.00
42755;DHT22;28407;51.830;5.684;2023-11-19T11:28:35;13.10;90.90
42755;DHT22;28407;51.830;5.684;2023-11-19T11:30:53;13.10;90.90
42755;DHT22;28407;51.830;5.684;2023-11-19T11:35:50;13.10;90.90
42755;DHT22;28407;51.830;5.684;2023-11-19T11:38:00;13.20;91.10
42755;DHT22;28407;51.830;5.684;2023-11-19T11:40:03;13.30;90.80
42755;DHT22;28407;51.830;5.684;2023-11-19T11:45:00;13.30;90.70
42755;DHT22;28407;51.830;5.684;2023-11-19T11:47:02;13.30;90.70
42755;DHT22;28407;51.830;5.684;2023-11-19T11:49:07;13.30;90.70
42755;DHT22;28407;51.830;5.684;2023-11-19T11:51:07;13.40;90.70
42755;DHT22;28407;51.830;5.684;2023-11-19T11:53:16;13.30;90.60
42755;DHT22;28407;51.830;5.684;2023-11-19T11:55:16;13.30;90.60
42755;DHT22;28407;51.830;5.684;2023-11-19T11:57:17;13.40;90.60
42755;DHT22;28407;51.830;5.684;2023-11-19T11:59:18;13.40;90.50
42755;DHT22;28407;51.830;5.684;2023-11-19T12:01:19;13.40;90.50
42755;DHT22;28407;51.830;5.684;2023-11-19T12:03:22;13.40;90.60
42755;DHT22;28407;51.830;5.684;2023-11-19T12:05:23;13.40;90.50
42755;DHT22;28407;51.830;5.684;2023-11-19T12:07:24;13.40;90.50
42755;DHT22;28407;51.830;5.684;2023-11-19T12:09:26;13.40;90.50
42755;DHT22;28407;51.830;5.684;2023-11-19T12:11:26;13.40;90.50
42755;DHT22;28407;51.830;5.684;2023-11-19T12:13:47;13.40;90.50
42755;DHT22;28407;51.830;5.684;2023-11-19T12:16:07;13.40;90.50
42755;DHT22;28407;51.830;5.684;2023-11-19T12:18:08;13.40;90.40
42755;DHT22;28407;51.830;5.684;2023-11-19T12:20:09;13.40;90.40
42755;DHT22;28407;51.830;5.684;2023-11-19T12:22:11;13.50;90.40
42755;DHT22;28407;51.830;5.684;2023-11-19T12:24:12;13.50;90.60
42755;DHT22;28407;51.830;5.684;2023-11-19T12:26:33;13.50;90.30
42755;DHT22;28407;51.830;5.684;2023-11-19T12:28:34;13.50;90.20
42755;DHT22;28407;51.830;5.684;2023-11-19T12:30:35;13.50;90.20
42755;DHT22;28407;51.830;5.684;2023-11-19T12:32:43;13.50;90.20
42755;DHT22;28407;51.830;5.684;2023-11-19T12:34:45;13.50;90.20
42755;DHT22;28407;51.830;5.684;2023-11-19T12:36:46;13.60;90.10
42755;DHT22;28407;51.830;5.684;2023-11-19T12:38:46;13.60;90.10
42755;DHT22;28407;51.830;5.684;2023-11-19T12:40:47;13.60;90.00
42755;DHT22;28407;51.830;5.684;2023-11-19T12:42:49;13.60;90.00
42755;DHT22;28407;51.830;5.684;2023-11-19T12:44:55;13.70;90.00
42755;DHT22;28407;51.830;5.684;2023-11-19T12:47:03;13.70;90.00
42755;DHT22;28407;51.830;5.684;2023-11-19T12:49:04;13.70;90.00
42755;DHT22;28407;51.830;5.684;2023-11-19T12:51:06;13.70;90.00
42755;DHT22;28407;51.830;5.684;2023-11-19T12:53:07;13.70;90.00
42755;DHT22;28407;51.830;5.684;2023-11-19T12:55:28;13.70;89.90
42755;DHT22;28407;51.830;5.684;2023-11-19T12:57:40;13.70;89.80
42755;DHT22;28407;51.830;5.684;2023-11-19T12:59:41;13.80;89.80
42755;DHT22;28407;51.830;5.684;2023-11-19T13:01:54;13.80;89.80
42755;DHT22;28407;51.830;5.684;2023-11-19T13:03:55;13.80;89.80